createdAt,value
2023-03-08T00:02:13.515Z,8.20
2023-03-08T00:06:07.460Z,8.80
2023-03-08T00:10:00.019Z,8.20
2023-03-08T00:13:27.316Z,8.10
2023-03-08T00:16:56.722Z,9.30
2023-03-08T00:21:20.201Z,8.00
2023-03-08T00:25:11.292Z,8.10
2023-03-08T00:29:17.198Z,10.20
2023-03-08T00:33:08.535Z,10.10
2023-03-08T00:37:16.419Z,9.00
2023-03-08T00:41:04.263Z,8.40
2023-03-08T00:45:00.376Z,8.40
2023-03-08T00:48:53.487Z,8.90
2023-03-08T00:52:51.140Z,8.30
2023-03-08T00:56:39.271Z,11.90
2023-03-08T01:00:27.773Z,7.90
2023-03-08T01:08:36.526Z,7.40
2023-03-08T01:12:25.744Z,10.90
2023-03-08T01:16:15.844Z,7.90
2023-03-08T01:20:03.855Z,8.10
2023-03-08T01:23:52.592Z,7.10
2023-03-08T01:27:36.770Z,7.00
2023-03-08T01:31:37.746Z,6.60
2023-03-08T01:35:04.613Z,8.50
2023-03-08T01:38:52.079Z,9.90
2023-03-08T01:42:39.748Z,7.90
2023-03-08T01:47:03.591Z,8.10
2023-03-08T01:51:15.542Z,8.40
2023-03-08T01:55:38.806Z,8.20
2023-03-08T01:59:38.789Z,8.90
2023-03-08T02:03:41.359Z,11.50
2023-03-08T02:07:48.775Z,8.90
2023-03-08T02:11:58.175Z,8.10
2023-03-08T02:16:06.119Z,9.40
2023-03-08T02:19:58.961Z,8.50
2023-03-08T02:24:07.308Z,8.70
2023-03-08T02:28:34.743Z,8.80
2023-03-08T02:32:42.663Z,9.60
2023-03-08T02:36:50.519Z,10.80
2023-03-08T02:41:18.084Z,12.00
2023-03-08T02:45:26.507Z,9.10
2023-03-08T02:49:34.976Z,8.00
2023-03-08T02:53:43.345Z,8.80
2023-03-08T02:57:51.200Z,7.60
2023-03-08T03:01:39.025Z,7.90
2023-03-08T03:05:46.996Z,10.00
2023-03-08T03:10:14.680Z,11.40
2023-03-08T03:14:25.658Z,11.90
2023-03-08T03:18:14.904Z,7.50
2023-03-08T03:22:22.416Z,8.60
2023-03-08T03:26:49.912Z,10.20
2023-03-08T03:30:58.303Z,10.20
2023-03-08T03:34:46.791Z,9.30
2023-03-08T03:39:11.136Z,8.40
2023-03-08T03:43:32.848Z,10.20
2023-03-08T03:47:27.429Z,9.00
2023-03-08T03:51:11.692Z,9.30
2023-03-08T03:55:31.547Z,10.10
2023-03-08T03:59:19.426Z,10.30
2023-03-08T04:03:22.871Z,12.10
2023-03-08T04:07:18.767Z,8.00
2023-03-08T04:10:56.889Z,9.10
2023-03-08T04:15:03.751Z,10.60
2023-03-08T04:19:15.532Z,9.90
2023-03-08T04:22:58.984Z,9.60
2023-03-08T04:26:46.432Z,9.60
2023-03-08T04:30:51.047Z,12.10
2023-03-08T04:35:19.417Z,11.10
2023-03-08T04:39:48.312Z,14.80
2023-03-08T04:44:16.468Z,9.90
2023-03-08T04:48:45.183Z,11.40
2023-03-08T04:52:53.288Z,11.20
2023-03-08T04:57:09.965Z,12.90
2023-03-08T05:01:38.248Z,11.20
2023-03-08T05:06:12.137Z,13.10
2023-03-08T05:10:42.896Z,10.90
2023-03-08T05:15:10.520Z,11.60
2023-03-08T05:19:39.583Z,12.30
2023-03-08T05:23:51.301Z,10.70
2023-03-08T05:28:19.047Z,11.00
2023-03-08T05:32:46.730Z,11.30
2023-03-08T05:37:14.424Z,12.70
2023-03-08T05:41:42.415Z,8.90
2023-03-08T05:46:11.508Z,11.00
2023-03-08T05:50:42.342Z,10.00
2023-03-08T05:55:20.327Z,8.80
2023-03-08T05:59:51.047Z,10.70
2023-03-08T06:04:11.730Z,9.10
2023-03-08T06:08:40.047Z,8.20
2023-03-08T06:13:20.450Z,11.60
2023-03-08T06:17:48.001Z,11.10
2023-03-08T06:22:15.565Z,10.50
2023-03-08T06:26:42.178Z,10.50
2023-03-08T06:30:52.177Z,9.20
2023-03-08T06:35:20.647Z,11.00
2023-03-08T06:39:51.534Z,9.40
2023-03-08T06:44:19.689Z,10.10
2023-03-08T06:48:48.271Z,12.20
2023-03-08T06:53:16.738Z,9.90
2023-03-08T06:57:44.482Z,11.40
2023-03-08T07:02:12.246Z,10.60
2023-03-08T07:06:39.888Z,12.00
2023-03-08T07:11:07.875Z,9.40
2023-03-08T07:15:35.593Z,11.90
2023-03-08T07:20:03.310Z,13.70
2023-03-08T07:24:31.017Z,11.80
2023-03-08T07:28:53.046Z,10.20
2023-03-08T07:33:21.984Z,11.60
2023-03-08T07:37:52.207Z,11.90
2023-03-08T07:42:20.188Z,13.30
2023-03-08T07:46:52.148Z,12.00
2023-03-08T07:51:20.582Z,12.90
2023-03-08T07:55:49.074Z,12.20
2023-03-08T08:00:17.188Z,13.20
2023-03-08T08:04:45.063Z,13.90
2023-03-08T08:09:15.006Z,11.70
2023-03-08T08:13:43.495Z,14.00
2023-03-08T08:18:12.995Z,13.70
2023-03-08T08:22:44.879Z,13.30
2023-03-08T08:27:15.488Z,12.80
2023-03-08T08:31:48.424Z,12.40
2023-03-08T08:36:17.687Z,10.50
2023-03-08T08:40:49.084Z,11.60
2023-03-08T08:45:17.128Z,12.50
2023-03-08T08:49:49.013Z,11.20
2023-03-08T08:54:17.037Z,14.90
2023-03-08T08:58:43.709Z,11.70
2023-03-08T09:02:46.389Z,10.40
2023-03-08T09:07:15.289Z,9.50
2023-03-08T09:11:23.848Z,12.00
2023-03-08T09:15:51.670Z,11.70
2023-03-08T09:20:21.507Z,12.00
2023-03-08T09:24:49.060Z,13.40
2023-03-08T09:29:18.616Z,11.00
2023-03-08T09:33:46.494Z,9.20
2023-03-08T09:38:14.645Z,9.70
2023-03-08T09:42:45.713Z,12.50
2023-03-08T09:47:16.070Z,10.30
2023-03-08T09:51:46.078Z,9.20
2023-03-08T09:56:20.824Z,11.60
2023-03-08T10:00:34.891Z,9.00
2023-03-08T10:04:40.538Z,11.80
2023-03-08T10:08:46.166Z,10.70
2023-03-08T10:12:36.928Z,9.20
2023-03-08T10:16:01.523Z,8.70
2023-03-08T10:20:11.072Z,8.70
2023-03-08T10:24:00.774Z,5.80
2023-03-08T10:27:54.467Z,5.30
2023-03-08T10:31:43.994Z,8.80
2023-03-08T10:35:32.639Z,5.90
2023-03-08T10:39:21.182Z,8.80
2023-03-08T10:43:16.198Z,9.50
2023-03-08T10:46:49.679Z,10.10
2023-03-08T10:50:21.125Z,9.40
2023-03-08T10:54:07.857Z,9.20
2023-03-08T10:57:56.150Z,8.20
2023-03-08T11:01:48.234Z,10.40
2023-03-08T11:05:37.920Z,13.60
2023-03-08T11:09:33.203Z,11.20
2023-03-08T11:13:23.887Z,12.10
2023-03-08T11:17:04.341Z,14.60
2023-03-08T11:21:20.474Z,12.20
2023-03-08T11:26:18.881Z,15.40
2023-03-08T11:34:46.780Z,15.10
2023-03-08T11:39:40.282Z,11.90
2023-03-08T11:43:41.104Z,16.50
2023-03-08T11:47:58.024Z,16.70
2023-03-08T11:52:11.273Z,15.90
2023-03-08T11:56:25.541Z,17.10
2023-03-08T12:00:20.535Z,21.30
2023-03-08T12:04:11.137Z,21.60
2023-03-08T12:08:04.102Z,19.90
2023-03-08T12:11:58.422Z,18.50
2023-03-08T12:15:42.246Z,17.50
2023-03-08T12:19:42.414Z,18.40
2023-03-08T12:23:35.734Z,18.00
2023-03-08T12:27:26.027Z,11.20
2023-03-08T12:31:26.602Z,13.80
2023-03-08T12:35:31.512Z,13.80
2023-03-08T12:39:24.252Z,13.80
2023-03-08T12:43:47.478Z,13.70
2023-03-08T12:47:53.443Z,16.00
2023-03-08T12:51:48.698Z,13.80
2023-03-08T12:55:32.675Z,16.40
2023-03-08T12:58:38.239Z,15.60
2023-03-08T13:02:38.921Z,16.20
2023-03-08T13:06:39.616Z,15.10
2023-03-08T13:19:56.358Z,16.90
2023-03-08T13:24:08.823Z,15.50
2023-03-08T13:28:17.814Z,18.60
2023-03-08T13:32:10.098Z,17.40
2023-03-08T13:36:14.736Z,16.60
2023-03-08T13:40:09.734Z,13.70
2023-03-08T13:44:00.290Z,15.70
2023-03-08T13:47:58.449Z,16.00
2023-03-08T13:51:47.698Z,17.20
2023-03-08T13:55:46.467Z,12.60
2023-03-08T13:59:19.481Z,15.80
2023-03-08T14:02:47.712Z,15.30
2023-03-08T14:07:07.856Z,15.50
2023-03-08T14:10:56.096Z,16.00
2023-03-08T14:14:44.174Z,14.10
2023-03-08T14:18:31.068Z,15.60
2023-03-08T14:22:10.107Z,15.30
2023-03-08T14:26:01.532Z,14.90
2023-03-08T14:29:59.418Z,15.60
2023-03-08T14:34:00.421Z,15.30
2023-03-08T14:37:51.361Z,16.40
2023-03-08T14:41:31.594Z,19.00
2023-03-08T14:45:21.270Z,15.80
2023-03-08T14:49:18.916Z,16.90
2023-03-08T14:53:07.185Z,14.60
2023-03-08T14:56:58.088Z,18.00
2023-03-08T15:00:49.174Z,17.60
2023-03-08T15:09:03.320Z,19.80
2023-03-08T15:12:45.387Z,18.70
2023-03-08T15:16:19.242Z,20.20
2023-03-08T15:20:00.724Z,18.70
2023-03-08T15:23:49.098Z,19.10
2023-03-08T15:26:58.573Z,21.70
2023-03-08T15:30:47.513Z,20.90
2023-03-08T15:34:35.251Z,22.30
2023-03-08T15:38:24.965Z,20.80
2023-03-08T15:42:12.712Z,24.50
2023-03-08T15:46:03.791Z,19.60
2023-03-08T15:49:52.573Z,20.10
2023-03-08T15:53:34.984Z,21.50
2023-03-08T15:57:33.999Z,22.20
2023-03-08T16:01:21.588Z,24.30
2023-03-08T16:13:42.379Z,18.40
2023-03-08T16:17:33.440Z,17.90
2023-03-08T16:21:23.023Z,23.80
2023-03-08T16:25:12.173Z,34.10
2023-03-08T16:29:01.705Z,31.80
2023-03-08T16:32:50.919Z,23.80
2023-03-08T16:36:39.588Z,20.90
2023-03-08T16:40:29.827Z,24.80
2023-03-08T16:44:18.771Z,42.60
2023-03-08T16:48:07.913Z,48.80
2023-03-08T16:51:53.465Z,47.00
2023-03-08T16:55:54.264Z,56.50
2023-03-08T16:59:43.101Z,58.70
2023-03-08T17:03:32.796Z,62.20
2023-03-08T17:07:04.556Z,58.60
2023-03-08T17:11:32.941Z,86.20
2023-03-08T17:15:38.304Z,95.50
2023-03-08T17:20:01.148Z,102.30
2023-03-08T17:27:40.711Z,129.70
2023-03-08T17:32:06.439Z,144.30
2023-03-08T17:36:11.475Z,143.20
2023-03-08T17:39:35.092Z,158.20
2023-03-08T17:43:23.947Z,121.40
2023-03-08T17:47:40.622Z,109.00
2023-03-08T17:59:59.205Z,95.80
2023-03-08T18:15:16.602Z,149.60
2023-03-08T18:19:07.148Z,142.60
2023-03-08T18:22:57.967Z,95.30
2023-03-08T18:30:49.623Z,128.20
2023-03-08T18:34:31.581Z,81.70
2023-03-08T18:38:17.126Z,55.10
2023-03-08T18:42:15.373Z,33.50
2023-03-08T18:46:03.999Z,29.30
2023-03-08T19:05:28.620Z,30.40
2023-03-08T19:13:48.605Z,33.20
2023-03-08T19:17:10.700Z,36.90
2023-03-08T19:22:05.275Z,19.50
2023-03-08T19:26:19.910Z,27.40
2023-03-08T19:30:32.104Z,35.50
2023-03-08T19:35:24.761Z,34.00
2023-03-08T19:54:17.059Z,46.80
2023-03-08T20:13:40.351Z,29.20
2023-03-08T20:17:57.165Z,37.20
2023-03-08T20:21:21.126Z,35.90
2023-03-08T20:25:22.811Z,48.30
2023-03-08T20:29:54.678Z,25.60
2023-03-08T20:37:55.262Z,55.70
2023-03-08T20:41:51.578Z,41.50
2023-03-08T21:00:41.632Z,40.20
2023-03-08T21:04:23.068Z,40.70
2023-03-08T21:08:19.817Z,51.50
2023-03-08T21:12:44.733Z,51.00
2023-03-08T21:16:39.436Z,48.80
2023-03-08T21:23:35.043Z,51.60
2023-03-08T21:27:23.479Z,26.40
2023-03-08T21:35:20.670Z,59.80
2023-03-08T21:39:23.023Z,63.90
2023-03-08T21:44:03.999Z,62.60
2023-03-08T21:52:16.530Z,73.70
2023-03-08T21:56:43.172Z,69.40
2023-03-08T22:00:41.634Z,63.60
2023-03-08T22:04:42.570Z,61.40
2023-03-08T22:09:04.701Z,57.80
2023-03-08T22:13:08.939Z,46.50
2023-03-08T22:20:48.520Z,42.50
2023-03-08T22:28:06.918Z,57.90
2023-03-08T22:32:19.773Z,54.40
2023-03-08T22:35:48.535Z,52.20
2023-03-08T22:40:23.255Z,46.50
2023-03-08T22:44:50.040Z,50.20
2023-03-08T22:48:41.651Z,46.80
2023-03-08T22:53:07.511Z,44.40
2023-03-08T22:57:36.296Z,54.20
2023-03-08T23:06:02.563Z,52.20
2023-03-08T23:10:31.987Z,51.10
2023-03-08T23:15:23.808Z,36.60
2023-03-08T23:19:53.819Z,40.10
2023-03-08T23:23:36.066Z,53.90
2023-03-08T23:27:42.095Z,53.90
2023-03-08T23:32:18.782Z,39.80
2023-03-08T23:36:15.894Z,40.20
2023-03-08T23:40:08.525Z,44.60
2023-03-08T23:43:58.794Z,38.00
2023-03-08T23:48:03.267Z,54.40
2023-03-08T23:52:21.649Z,31.80
2023-03-08T23:56:13.680Z,44.30
